sensor_id;sensor_type;location;lat;lon;timestamp;pressure;altitude;pressure_sealevel;temperature;humidity
21185;BME280;18176;49.502;11.754;2022-12-08T00:02:41;96439.66;;;9.25;58.65
21185;BME280;18176;49.502;11.754;2022-12-08T00:06:42;96414.34;;;9.29;58.14
21185;BME280;18176;49.502;11.754;2022-12-08T00:10:55;96439.59;;;9.48;58.06
21185;BME280;18176;49.502;11.754;2022-12-08T00:14:55;96421.66;;;9.50;57.62
21185;BME280;18176;49.502;11.754;2022-12-08T00:18:58;96427.28;;;9.42;57.92
21185;BME280;18176;49.502;11.754;2022-12-08T00:22:58;96432.97;;;9.34;58.03
21185;BME280;18176;49.502;11.754;2022-12-08T00:27:00;96422.69;;;9.49;57.77
21185;BME280;18176;49.502;11.754;2022-12-08T00:31:08;96424.41;;;9.55;57.81
21185;BME280;18176;49.502;11.754;2022-12-08T00:35:11;96420.50;;;9.57;57.71
21185;BME280;18176;49.502;11.754;2022-12-08T00:39:13;96413.88;;;9.43;58.04
21185;BME280;18176;49.502;11.754;2022-12-08T00:43:14;96414.84;;;9.54;57.52
21185;BME280;18176;49.502;11.754;2022-12-08T00:47:14;96403.75;;;9.40;57.66
21185;BME280;18176;49.502;11.754;2022-12-08T00:51:23;96415.91;;;9.53;57.58
21185;BME280;18176;49.502;11.754;2022-12-08T00:55:23;96420.13;;;9.54;57.47
21185;BME280;18176;49.502;11.754;2022-12-08T00:59:23;96410.06;;;9.51;57.57
21185;BME280;18176;49.502;11.754;2022-12-08T01:03:23;96411.19;;;9.55;57.69
21185;BME280;18176;49.502;11.754;2022-12-08T01:07:27;96398.25;;;9.30;57.78
21185;BME280;18176;49.502;11.754;2022-12-08T01:11:27;96405.41;;;9.30;58.26
21185;BME280;18176;49.502;11.754;2022-12-08T01:15:27;96416.09;;;9.35;58.17
21185;BME280;18176;49.502;11.754;2022-12-08T01:19:27;96422.22;;;9.52;57.72
21185;BME280;18176;49.502;11.754;2022-12-08T01:23:30;96422.75;;;9.26;58.64
21185;BME280;18176;49.502;11.754;2022-12-08T01:27:30;96421.44;;;9.40;57.97
21185;BME280;18176;49.502;11.754;2022-12-08T01:31:30;96422.00;;;9.42;58.02
21185;BME280;18176;49.502;11.754;2022-12-08T01:35:32;96425.53;;;9.19;58.18
21185;BME280;18176;49.502;11.754;2022-12-08T01:39:35;96388.66;;;9.12;58.08
21185;BME280;18176;49.502;11.754;2022-12-08T01:43:57;96350.41;;;9.03;57.75
21185;BME280;18176;49.502;11.754;2022-12-08T01:48:03;96386.38;;;9.16;57.86
21185;BME280;18176;49.502;11.754;2022-12-08T01:52:14;96400.09;;;9.58;57.31
21185;BME280;18176;49.502;11.754;2022-12-08T01:56:25;96402.53;;;9.59;56.94
21185;BME280;18176;49.502;11.754;2022-12-08T02:00:26;96406.44;;;9.29;57.66
21185;BME280;18176;49.502;11.754;2022-12-08T02:04:26;96403.69;;;9.12;58.07
21185;BME280;18176;49.502;11.754;2022-12-08T02:08:28;96387.41;;;9.03;58.35
21185;BME280;18176;49.502;11.754;2022-12-08T02:12:31;96387.22;;;9.33;57.64
21185;BME280;18176;49.502;11.754;2022-12-08T02:16:43;96370.94;;;9.25;57.68
21185;BME280;18176;49.502;11.754;2022-12-08T02:20:55;96380.25;;;9.15;57.69
21185;BME280;18176;49.502;11.754;2022-12-08T02:25:06;96376.56;;;9.16;58.02
21185;BME280;18176;49.502;11.754;2022-12-08T02:34:18;96366.53;;;8.90;58.17
21185;BME280;18176;49.502;11.754;2022-12-08T02:38:37;96324.31;;;8.67;58.01
21185;BME280;18176;49.502;11.754;2022-12-08T02:42:46;96369.97;;;9.02;58.05
21185;BME280;18176;49.502;11.754;2022-12-08T02:46:59;96323.19;;;8.63;57.76
21185;BME280;18176;49.502;11.754;2022-12-08T02:51:05;96357.00;;;8.78;58.01
21185;BME280;18176;49.502;11.754;2022-12-08T02:55:22;96351.75;;;8.66;58.17
21185;BME280;18176;49.502;11.754;2022-12-08T02:59:44;96350.59;;;8.74;57.88
21185;BME280;18176;49.502;11.754;2022-12-08T03:04:01;96354.50;;;8.71;58.21
21185;BME280;18176;49.502;11.754;2022-12-08T03:08:13;96333.06;;;8.56;57.90
21185;BME280;18176;49.502;11.754;2022-12-08T03:12:24;96345.00;;;8.59;57.97
21185;BME280;18176;49.502;11.754;2022-12-08T03:16:27;96348.19;;;8.72;57.77
21185;BME280;18176;49.502;11.754;2022-12-08T03:20:29;96350.38;;;8.52;58.07
21185;BME280;18176;49.502;11.754;2022-12-08T03:24:37;96340.63;;;8.64;57.68
21185;BME280;18176;49.502;11.754;2022-12-08T03:28:38;96334.91;;;8.44;57.89
21185;BME280;18176;49.502;11.754;2022-12-08T03:32:45;96337.16;;;8.75;57.17
21185;BME280;18176;49.502;11.754;2022-12-08T03:36:47;96337.91;;;8.99;56.59
21185;BME280;18176;49.502;11.754;2022-12-08T03:40:50;96271.28;;;8.57;56.39
21185;BME280;18176;49.502;11.754;2022-12-08T03:45:03;96323.31;;;8.96;56.50
21185;BME280;18176;49.502;11.754;2022-12-08T03:49:03;96330.72;;;8.71;56.67
21185;BME280;18176;49.502;11.754;2022-12-08T03:53:03;96327.06;;;8.72;56.65
21185;BME280;18176;49.502;11.754;2022-12-08T03:57:06;96304.78;;;8.68;56.61
21185;BME280;18176;49.502;11.754;2022-12-08T04:01:07;96321.06;;;8.88;56.41
21185;BME280;18176;49.502;11.754;2022-12-08T04:05:08;96301.38;;;8.56;56.23
21185;BME280;18176;49.502;11.754;2022-12-08T04:09:08;96291.72;;;8.62;55.68
21185;BME280;18176;49.502;11.754;2022-12-08T04:13:11;96300.00;;;8.42;56.42
21185;BME280;18176;49.502;11.754;2022-12-08T04:17:11;96299.66;;;8.50;56.54
21185;BME280;18176;49.502;11.754;2022-12-08T04:21:11;96240.44;;;8.11;56.63
21185;BME280;18176;49.502;11.754;2022-12-08T04:25:11;96300.91;;;8.36;57.01
21185;BME280;18176;49.502;11.754;2022-12-08T04:29:14;96295.75;;;8.18;57.14
21185;BME280;18176;49.502;11.754;2022-12-08T04:33:14;96296.91;;;8.10;57.55
21185;BME280;18176;49.502;11.754;2022-12-08T04:37:15;96287.81;;;8.18;57.21
21185;BME280;18176;49.502;11.754;2022-12-08T04:41:15;96289.31;;;8.14;57.23
21185;BME280;18176;49.502;11.754;2022-12-08T04:45:18;96256.66;;;7.92;57.09
21185;BME280;18176;49.502;11.754;2022-12-08T04:49:18;96282.09;;;7.98;57.59
21185;BME280;18176;49.502;11.754;2022-12-08T04:53:18;96279.00;;;8.24;56.71
21185;BME280;18176;49.502;11.754;2022-12-08T04:57:18;96265.00;;;8.12;57.23
21185;BME280;18176;49.502;11.754;2022-12-08T05:01:21;96271.69;;;8.26;56.81
21185;BME280;18176;49.502;11.754;2022-12-08T05:05:21;96268.09;;;8.09;57.38
21185;BME280;18176;49.502;11.754;2022-12-08T05:09:21;96274.50;;;8.24;57.41
21185;BME280;18176;49.502;11.754;2022-12-08T05:13:22;96281.66;;;8.35;57.30
21185;BME280;18176;49.502;11.754;2022-12-08T05:17:24;96281.88;;;8.34;57.17
21185;BME280;18176;49.502;11.754;2022-12-08T05:21:25;96273.06;;;8.40;57.09
21185;BME280;18176;49.502;11.754;2022-12-08T05:25:25;96262.59;;;8.22;57.26
21185;BME280;18176;49.502;11.754;2022-12-08T05:29:25;96246.78;;;8.10;57.43
21185;BME280;18176;49.502;11.754;2022-12-08T05:33:28;96274.53;;;8.36;57.02
21185;BME280;18176;49.502;11.754;2022-12-08T05:37:28;96264.88;;;8.07;57.91
21185;BME280;18176;49.502;11.754;2022-12-08T05:41:28;96266.50;;;8.08;58.05
21185;BME280;18176;49.502;11.754;2022-12-08T05:45:29;96265.81;;;8.01;58.27
21185;BME280;18176;49.502;11.754;2022-12-08T05:49:32;96269.25;;;7.90;58.60
21185;BME280;18176;49.502;11.754;2022-12-08T05:53:32;96256.28;;;8.00;58.12
21185;BME280;18176;49.502;11.754;2022-12-08T05:57:32;96259.72;;;8.00;58.24
21185;BME280;18176;49.502;11.754;2022-12-08T06:01:32;96272.81;;;8.07;58.23
21185;BME280;18176;49.502;11.754;2022-12-08T06:05:35;96244.59;;;8.07;58.31
21185;BME280;18176;49.502;11.754;2022-12-08T06:09:36;96264.19;;;8.46;57.57
21185;BME280;18176;49.502;11.754;2022-12-08T06:13:36;96252.69;;;8.52;57.39
21185;BME280;18176;49.502;11.754;2022-12-08T06:17:36;96260.75;;;8.34;57.65
21185;BME280;18176;49.502;11.754;2022-12-08T06:21:38;96262.38;;;8.35;57.79
21185;BME280;18176;49.502;11.754;2022-12-08T06:25:38;96266.72;;;8.41;57.55
21185;BME280;18176;49.502;11.754;2022-12-08T06:29:39;96231.28;;;8.14;58.00
21185;BME280;18176;49.502;11.754;2022-12-08T06:33:39;96254.09;;;8.20;58.04
21185;BME280;18176;49.502;11.754;2022-12-08T06:37:42;96257.91;;;8.35;57.58
21185;BME280;18176;49.502;11.754;2022-12-08T06:41:42;96250.34;;;8.27;57.66
21185;BME280;18176;49.502;11.754;2022-12-08T06:45:54;96252.97;;;8.39;57.43
21185;BME280;18176;49.502;11.754;2022-12-08T06:49:55;96264.88;;;8.41;57.31
21185;BME280;18176;49.502;11.754;2022-12-08T06:53:57;96263.06;;;8.42;57.42
21185;BME280;18176;49.502;11.754;2022-12-08T06:57:57;96269.78;;;8.49;57.20
21185;BME280;18176;49.502;11.754;2022-12-08T07:01:58;96271.09;;;8.47;57.35
21185;BME280;18176;49.502;11.754;2022-12-08T07:05:58;96273.34;;;8.55;57.33
21185;BME280;18176;49.502;11.754;2022-12-08T07:10:04;96280.59;;;8.48;57.24
21185;BME280;18176;49.502;11.754;2022-12-08T07:14:05;96259.84;;;8.40;57.33
21185;BME280;18176;49.502;11.754;2022-12-08T07:18:06;96283.56;;;8.63;57.15
21185;BME280;18176;49.502;11.754;2022-12-08T07:22:07;96279.44;;;8.56;57.09
21185;BME280;18176;49.502;11.754;2022-12-08T07:26:11;96283.66;;;8.68;56.61
21185;BME280;18176;49.502;11.754;2022-12-08T07:30:13;96265.53;;;8.60;56.83
21185;BME280;18176;49.502;11.754;2022-12-08T07:34:13;96276.31;;;8.70;56.53
21185;BME280;18176;49.502;11.754;2022-12-08T07:38:13;96263.69;;;8.72;56.20
21185;BME280;18176;49.502;11.754;2022-12-08T07:42:16;96278.44;;;8.85;56.12
21185;BME280;18176;49.502;11.754;2022-12-08T07:46:19;96280.66;;;8.76;56.27
21185;BME280;18176;49.502;11.754;2022-12-08T07:50:20;96285.84;;;8.60;56.54
21185;BME280;18176;49.502;11.754;2022-12-08T07:54:20;96280.16;;;8.91;55.88
21185;BME280;18176;49.502;11.754;2022-12-08T07:58:23;96241.41;;;8.68;55.55
21185;BME280;18176;49.502;11.754;2022-12-08T08:02:23;96267.72;;;8.91;55.37
21185;BME280;18176;49.502;11.754;2022-12-08T08:06:24;96275.09;;;8.89;55.46
21185;BME280;18176;49.502;11.754;2022-12-08T08:10:24;96253.00;;;8.67;55.22
21185;BME280;18176;49.502;11.754;2022-12-08T08:14:27;96248.50;;;8.79;54.90
21185;BME280;18176;49.502;11.754;2022-12-08T08:18:27;96279.16;;;9.08;54.42
21185;BME280;18176;49.502;11.754;2022-12-08T08:22:27;96268.34;;;8.82;54.50
21185;BME280;18176;49.502;11.754;2022-12-08T08:26:27;96279.25;;;8.85;54.75
21185;BME280;18176;49.502;11.754;2022-12-08T08:30:30;96281.72;;;9.03;54.16
21185;BME280;18176;49.502;11.754;2022-12-08T08:34:30;96274.34;;;9.05;54.41
21185;BME280;18176;49.502;11.754;2022-12-08T08:38:30;96266.31;;;9.00;54.53
21185;BME280;18176;49.502;11.754;2022-12-08T08:42:31;96279.38;;;9.18;54.29
21185;BME280;18176;49.502;11.754;2022-12-08T08:46:33;96276.91;;;9.29;53.83
21185;BME280;18176;49.502;11.754;2022-12-08T08:50:34;96227.28;;;9.02;53.76
21185;BME280;18176;49.502;11.754;2022-12-08T08:54:34;96270.28;;;9.14;53.67
21185;BME280;18176;49.502;11.754;2022-12-08T08:58:34;96280.22;;;9.52;52.83
21185;BME280;18176;49.502;11.754;2022-12-08T09:02:37;96251.03;;;9.31;52.57
21185;BME280;18176;49.502;11.754;2022-12-08T09:06:37;96292.03;;;9.33;52.77
21185;BME280;18176;49.502;11.754;2022-12-08T09:10:39;96287.75;;;9.60;53.01
21185;BME280;18176;49.502;11.754;2022-12-08T09:14:39;96282.47;;;9.44;52.45
21185;BME280;18176;49.502;11.754;2022-12-08T09:18:42;96268.09;;;9.40;52.43
21185;BME280;18176;49.502;11.754;2022-12-08T09:22:42;96261.03;;;9.29;52.95
21185;BME280;18176;49.502;11.754;2022-12-08T09:26:44;96217.06;;;9.23;52.41
21185;BME280;18176;49.502;11.754;2022-12-08T09:30:46;96274.94;;;10.02;52.30
21185;BME280;18176;49.502;11.754;2022-12-08T09:34:49;96264.66;;;10.22;51.58
21185;BME280;18176;49.502;11.754;2022-12-08T09:38:51;96266.28;;;10.23;50.99
21185;BME280;18176;49.502;11.754;2022-12-08T09:43:01;96251.22;;;10.24;50.95
21185;BME280;18176;49.502;11.754;2022-12-08T09:47:17;96221.75;;;10.20;50.75
21185;BME280;18176;49.502;11.754;2022-12-08T09:51:22;96259.59;;;10.59;50.21
21185;BME280;18176;49.502;11.754;2022-12-08T09:55:37;96250.66;;;10.87;50.26
21185;BME280;18176;49.502;11.754;2022-12-08T09:59:39;96250.94;;;10.64;49.61
21185;BME280;18176;49.502;11.754;2022-12-08T10:03:43;96246.50;;;10.47;49.72
21185;BME280;18176;49.502;11.754;2022-12-08T10:07:59;96240.59;;;10.40;49.47
21185;BME280;18176;49.502;11.754;2022-12-08T10:12:12;96236.47;;;10.11;50.26
21185;BME280;18176;49.502;11.754;2022-12-08T10:16:25;96225.31;;;10.47;50.10
21185;BME280;18176;49.502;11.754;2022-12-08T10:20:37;96231.72;;;10.51;49.41
21185;BME280;18176;49.502;11.754;2022-12-08T10:24:51;96223.56;;;10.36;49.73
21185;BME280;18176;49.502;11.754;2022-12-08T10:28:52;96221.72;;;10.37;49.51
21185;BME280;18176;49.502;11.754;2022-12-08T10:32:57;96216.88;;;10.29;49.17
21185;BME280;18176;49.502;11.754;2022-12-08T10:36:58;96121.13;;;9.77;49.38
21185;BME280;18176;49.502;11.754;2022-12-08T10:41:05;96175.19;;;10.19;49.26
21185;BME280;18176;49.502;11.754;2022-12-08T10:45:22;96187.69;;;10.07;49.51
21185;BME280;18176;49.502;11.754;2022-12-08T10:49:30;96192.91;;;10.02;49.67
21185;BME280;18176;49.502;11.754;2022-12-08T10:53:44;96187.69;;;10.07;50.03
21185;BME280;18176;49.502;11.754;2022-12-08T10:57:47;96171.44;;;9.99;49.85
21185;BME280;18176;49.502;11.754;2022-12-08T11:01:50;96142.41;;;10.25;49.37
21185;BME280;18176;49.502;11.754;2022-12-08T11:05:57;96172.91;;;10.49;48.87
21185;BME280;18176;49.502;11.754;2022-12-08T11:10:18;96165.94;;;10.43;48.62
21185;BME280;18176;49.502;11.754;2022-12-08T11:14:24;96163.38;;;10.75;48.37
21185;BME280;18176;49.502;11.754;2022-12-08T11:18:30;96163.72;;;10.35;48.36
21185;BME280;18176;49.502;11.754;2022-12-08T11:22:40;96158.50;;;10.89;48.30
21185;BME280;18176;49.502;11.754;2022-12-08T11:26:48;96143.69;;;10.93;47.01
21185;BME280;18176;49.502;11.754;2022-12-08T11:30:59;96100.81;;;11.33;46.86
21185;BME280;18176;49.502;11.754;2022-12-08T11:35:05;96136.59;;;12.09;46.23
21185;BME280;18176;49.502;11.754;2022-12-08T11:39:11;96117.69;;;12.00;45.71
21185;BME280;18176;49.502;11.754;2022-12-08T11:43:17;96113.09;;;11.80;45.56
21185;BME280;18176;49.502;11.754;2022-12-08T11:47:29;96136.53;;;11.98;45.44
21185;BME280;18176;49.502;11.754;2022-12-08T11:51:37;96125.22;;;12.23;45.20
21185;BME280;18176;49.502;11.754;2022-12-08T11:55:44;96125.00;;;11.41;45.54
21185;BME280;18176;49.502;11.754;2022-12-08T11:59:49;96126.09;;;11.45;46.31
21185;BME280;18176;49.502;11.754;2022-12-08T12:04:00;96073.47;;;10.95;46.35
21185;BME280;18176;49.502;11.754;2022-12-08T12:08:21;96113.13;;;11.90;45.41
21185;BME280;18176;49.502;11.754;2022-12-08T12:12:44;96118.06;;;12.24;45.11
21185;BME280;18176;49.502;11.754;2022-12-08T12:17:03;96090.41;;;12.10;43.97
21185;BME280;18176;49.502;11.754;2022-12-08T12:21:12;96102.78;;;12.71;43.52
21185;BME280;18176;49.502;11.754;2022-12-08T12:25:22;96110.28;;;12.79;42.89
21185;BME280;18176;49.502;11.754;2022-12-08T12:29:25;96103.84;;;12.60;44.08
21185;BME280;18176;49.502;11.754;2022-12-08T12:33:29;96089.53;;;12.81;43.27
21185;BME280;18176;49.502;11.754;2022-12-08T12:37:40;96104.22;;;13.39;42.71
21185;BME280;18176;49.502;11.754;2022-12-08T12:41:46;96103.75;;;12.35;42.94
21185;BME280;18176;49.502;11.754;2022-12-08T12:45:47;96085.78;;;12.67;43.62
21185;BME280;18176;49.502;11.754;2022-12-08T12:50:05;96095.25;;;12.33;43.60
21185;BME280;18176;49.502;11.754;2022-12-08T12:54:25;96095.34;;;12.58;43.32
21185;BME280;18176;49.502;11.754;2022-12-08T12:58:37;96091.88;;;12.47;43.26
21185;BME280;18176;49.502;11.754;2022-12-08T13:02:45;96087.88;;;12.50;42.74
21185;BME280;18176;49.502;11.754;2022-12-08T13:06:49;96084.53;;;12.03;44.41
21185;BME280;18176;49.502;11.754;2022-12-08T13:11:00;96090.22;;;11.74;45.11
21185;BME280;18176;49.502;11.754;2022-12-08T13:15:05;96069.91;;;11.53;45.04
21185;BME280;18176;49.502;11.754;2022-12-08T13:19:13;96081.84;;;11.51;44.88
21185;BME280;18176;49.502;11.754;2022-12-08T13:23:42;96059.97;;;10.97;45.51
21185;BME280;18176;49.502;11.754;2022-12-08T13:27:53;96056.59;;;10.75;46.58
21185;BME280;18176;49.502;11.754;2022-12-08T13:31:55;96084.13;;;11.37;45.70
21185;BME280;18176;49.502;11.754;2022-12-08T13:36:20;96082.84;;;11.45;45.83
21185;BME280;18176;49.502;11.754;2022-12-08T13:40:27;96077.81;;;11.43;45.79
21185;BME280;18176;49.502;11.754;2022-12-08T13:44:37;96083.75;;;11.65;45.83
21185;BME280;18176;49.502;11.754;2022-12-08T13:49:01;96083.47;;;11.20;46.26
21185;BME280;18176;49.502;11.754;2022-12-08T13:53:27;96057.19;;;10.82;46.99
21185;BME280;18176;49.502;11.754;2022-12-08T13:57:49;96078.09;;;11.10;46.98
21185;BME280;18176;49.502;11.754;2022-12-08T14:01:53;96090.47;;;11.36;46.43
21185;BME280;18176;49.502;11.754;2022-12-08T14:05:54;96080.91;;;11.30;46.23
21185;BME280;18176;49.502;11.754;2022-12-08T14:10:18;96082.13;;;11.17;46.99
21185;BME280;18176;49.502;11.754;2022-12-08T14:14:23;96089.03;;;11.55;46.51
21185;BME280;18176;49.502;11.754;2022-12-08T14:18:50;96080.22;;;11.50;46.24
21185;BME280;18176;49.502;11.754;2022-12-08T14:22:51;96080.72;;;11.05;47.21
21185;BME280;18176;49.502;11.754;2022-12-08T14:26:55;96069.41;;;11.19;46.52
21185;BME280;18176;49.502;11.754;2022-12-08T14:30:56;96068.19;;;10.95;46.86
21185;BME280;18176;49.502;11.754;2022-12-08T14:35:11;96077.31;;;11.14;46.97
21185;BME280;18176;49.502;11.754;2022-12-08T14:39:14;96063.53;;;11.12;46.32
21185;BME280;18176;49.502;11.754;2022-12-08T14:43:19;96060.06;;;11.07;46.69
21185;BME280;18176;49.502;11.754;2022-12-08T14:47:19;96069.31;;;10.73;47.43
21185;BME280;18176;49.502;11.754;2022-12-08T14:51:28;96070.84;;;10.15;48.60
21185;BME280;18176;49.502;11.754;2022-12-08T14:55:35;96060.88;;;9.84;49.16
21185;BME280;18176;49.502;11.754;2022-12-08T14:59:38;96064.47;;;9.73;49.58
21185;BME280;18176;49.502;11.754;2022-12-08T15:03:40;96079.72;;;9.49;50.33
21185;BME280;18176;49.502;11.754;2022-12-08T15:07:53;96077.06;;;9.28;51.17
21185;BME280;18176;49.502;11.754;2022-12-08T15:12:00;96071.13;;;8.87;52.17
21185;BME280;18176;49.502;11.754;2022-12-08T15:16:00;96083.25;;;9.00;51.66
21185;BME280;18176;49.502;11.754;2022-12-08T15:20:05;96068.91;;;8.79;51.85
21185;BME280;18176;49.502;11.754;2022-12-08T15:24:11;96082.56;;;8.76;52.32
21185;BME280;18176;49.502;11.754;2022-12-08T15:28:12;96075.28;;;8.67;52.44
21185;BME280;18176;49.502;11.754;2022-12-08T15:32:17;96082.13;;;8.51;52.71
21185;BME280;18176;49.502;11.754;2022-12-08T15:36:18;96076.34;;;8.37;53.13
21185;BME280;18176;49.502;11.754;2022-12-08T15:40:21;96059.47;;;8.10;53.34
21185;BME280;18176;49.502;11.754;2022-12-08T15:44:23;96073.00;;;8.02;53.84
21185;BME280;18176;49.502;11.754;2022-12-08T15:48:25;96079.94;;;7.92;54.79
21185;BME280;18176;49.502;11.754;2022-12-08T15:52:26;96081.47;;;8.04;54.15
21185;BME280;18176;49.502;11.754;2022-12-08T15:56:29;96082.09;;;7.95;54.33
21185;BME280;18176;49.502;11.754;2022-12-08T16:00:36;96087.84;;;7.92;54.50
21185;BME280;18176;49.502;11.754;2022-12-08T16:04:53;96062.25;;;7.52;54.70
21185;BME280;18176;49.502;11.754;2022-12-08T16:09:20;96080.69;;;7.52;55.08
21185;BME280;18176;49.502;11.754;2022-12-08T16:13:25;96097.78;;;7.38;55.94
21185;BME280;18176;49.502;11.754;2022-12-08T16:17:54;96093.41;;;7.32;55.72
21185;BME280;18176;49.502;11.754;2022-12-08T16:21:55;96039.56;;;6.82;55.57
21185;BME280;18176;49.502;11.754;2022-12-08T16:26:18;96097.28;;;6.95;56.08
21185;BME280;18176;49.502;11.754;2022-12-08T16:30:41;96086.38;;;6.80;56.09
21185;BME280;18176;49.502;11.754;2022-12-08T16:34:42;96092.22;;;6.82;56.25
21185;BME280;18176;49.502;11.754;2022-12-08T16:38:42;96086.16;;;6.81;57.13
21185;BME280;18176;49.502;11.754;2022-12-08T16:42:42;96096.78;;;6.75;56.51
21185;BME280;18176;49.502;11.754;2022-12-08T16:46:47;96054.09;;;6.31;56.57
21185;BME280;18176;49.502;11.754;2022-12-08T16:50:47;96100.03;;;6.47;57.31
21185;BME280;18176;49.502;11.754;2022-12-08T16:54:47;96090.16;;;6.43;57.22
21185;BME280;18176;49.502;11.754;2022-12-08T16:58:48;96083.34;;;6.53;57.00
21185;BME280;18176;49.502;11.754;2022-12-08T17:02:51;96094.31;;;6.50;57.40
21185;BME280;18176;49.502;11.754;2022-12-08T17:06:52;96089.72;;;6.46;57.24
21185;BME280;18176;49.502;11.754;2022-12-08T17:10:52;96043.88;;;6.12;57.10
21185;BME280;18176;49.502;11.754;2022-12-08T17:15:06;96087.44;;;6.38;57.59
21185;BME280;18176;49.502;11.754;2022-12-08T17:19:12;96032.50;;;6.00;58.29
21185;BME280;18176;49.502;11.754;2022-12-08T17:23:12;96086.84;;;6.35;58.66
21185;BME280;18176;49.502;11.754;2022-12-08T17:27:12;96085.94;;;6.42;57.90
21185;BME280;18176;49.502;11.754;2022-12-08T17:31:15;96088.44;;;6.36;57.52
21185;BME280;18176;49.502;11.754;2022-12-08T17:35:22;96085.44;;;6.21;57.27
21185;BME280;18176;49.502;11.754;2022-12-08T17:39:22;96089.25;;;6.07;57.33
21185;BME280;18176;49.502;11.754;2022-12-08T17:43:23;96095.97;;;6.03;57.56
21185;BME280;18176;49.502;11.754;2022-12-08T17:47:23;96086.78;;;5.94;58.73
21185;BME280;18176;49.502;11.754;2022-12-08T17:51:26;96097.34;;;6.06;57.79
21185;BME280;18176;49.502;11.754;2022-12-08T17:55:26;96096.28;;;5.95;57.74
21185;BME280;18176;49.502;11.754;2022-12-08T17:59:27;96098.53;;;5.92;59.13
21185;BME280;18176;49.502;11.754;2022-12-08T18:03:27;96083.66;;;5.86;58.13
21185;BME280;18176;49.502;11.754;2022-12-08T18:07:30;96088.81;;;5.92;57.56
21185;BME280;18176;49.502;11.754;2022-12-08T18:11:31;96068.22;;;5.71;58.12
21185;BME280;18176;49.502;11.754;2022-12-08T18:15:32;96107.22;;;5.92;57.61
21185;BME280;18176;49.502;11.754;2022-12-08T18:19:35;96095.91;;;5.92;58.40
21185;BME280;18176;49.502;11.754;2022-12-08T18:23:41;96091.00;;;5.77;58.72
21185;BME280;18176;49.502;11.754;2022-12-08T18:27:42;96093.50;;;5.90;59.57
21185;BME280;18176;49.502;11.754;2022-12-08T18:31:43;96089.16;;;6.14;59.46
21185;BME280;18176;49.502;11.754;2022-12-08T18:35:45;96101.31;;;6.45;58.97
21185;BME280;18176;49.502;11.754;2022-12-08T18:39:47;96092.75;;;6.72;58.79
21185;BME280;18176;49.502;11.754;2022-12-08T18:43:48;96074.34;;;6.84;58.40
21185;BME280;18176;49.502;11.754;2022-12-08T18:47:50;96087.47;;;7.02;58.46
21185;BME280;18176;49.502;11.754;2022-12-08T18:51:50;96076.69;;;7.03;58.63
21185;BME280;18176;49.502;11.754;2022-12-08T18:55:53;96035.00;;;6.89;58.56
21185;BME280;18176;49.502;11.754;2022-12-08T18:59:53;96025.97;;;6.96;58.30
21185;BME280;18176;49.502;11.754;2022-12-08T19:03:54;96055.06;;;7.13;57.69
21185;BME280;18176;49.502;11.754;2022-12-08T19:08:14;96087.91;;;7.45;58.18
21185;BME280;18176;49.502;11.754;2022-12-08T19:12:17;96072.09;;;7.45;58.12
21185;BME280;18176;49.502;11.754;2022-12-08T19:16:17;96083.06;;;7.65;58.38
21185;BME280;18176;49.502;11.754;2022-12-08T19:20:18;95875.34;;;6.25;57.99
21185;BME280;18176;49.502;11.754;2022-12-08T19:24:18;96076.19;;;7.64;58.33
21185;BME280;18176;49.502;11.754;2022-12-08T19:28:21;96073.91;;;7.56;58.44
21185;BME280;18176;49.502;11.754;2022-12-08T19:32:21;96086.66;;;7.59;58.14
21185;BME280;18176;49.502;11.754;2022-12-08T19:36:22;96072.97;;;7.62;58.29
21185;BME280;18176;49.502;11.754;2022-12-08T19:40:23;96013.78;;;7.19;57.87
21185;BME280;18176;49.502;11.754;2022-12-08T19:44:47;96084.69;;;7.66;58.02
21185;BME280;18176;49.502;11.754;2022-12-08T19:48:53;96062.81;;;7.54;58.11
21185;BME280;18176;49.502;11.754;2022-12-08T19:52:55;96077.13;;;7.58;58.13
21185;BME280;18176;49.502;11.754;2022-12-08T19:56:55;96076.44;;;7.51;57.62
21185;BME280;18176;49.502;11.754;2022-12-08T20:00:58;96078.19;;;7.46;57.99
21185;BME280;18176;49.502;11.754;2022-12-08T20:04:59;96074.94;;;7.55;58.03
21185;BME280;18176;49.502;11.754;2022-12-08T20:08:59;96073.09;;;7.67;58.13
21185;BME280;18176;49.502;11.754;2022-12-08T20:13:01;96064.41;;;7.55;57.63
21185;BME280;18176;49.502;11.754;2022-12-08T20:17:16;96080.22;;;7.55;57.43
21185;BME280;18176;49.502;11.754;2022-12-08T20:21:16;96072.69;;;7.24;57.77
21185;BME280;18176;49.502;11.754;2022-12-08T20:25:17;96057.88;;;7.23;57.38
21185;BME280;18176;49.502;11.754;2022-12-08T20:29:17;96084.00;;;7.59;57.44
21185;BME280;18176;49.502;11.754;2022-12-08T20:33:20;96079.28;;;7.73;56.83
21185;BME280;18176;49.502;11.754;2022-12-08T20:37:20;96072.53;;;7.65;57.07
21185;BME280;18176;49.502;11.754;2022-12-08T20:41:21;96058.41;;;7.60;57.04
21185;BME280;18176;49.502;11.754;2022-12-08T20:45:22;96051.81;;;7.57;57.38
21185;BME280;18176;49.502;11.754;2022-12-08T20:49:24;96063.78;;;7.76;57.16
21185;BME280;18176;49.502;11.754;2022-12-08T20:53:30;96059.13;;;7.55;57.30
21185;BME280;18176;49.502;11.754;2022-12-08T20:57:31;96072.53;;;7.65;57.62
21185;BME280;18176;49.502;11.754;2022-12-08T21:01:31;96068.75;;;7.61;57.59
21185;BME280;18176;49.502;11.754;2022-12-08T21:05:34;96070.13;;;7.64;57.30
21185;BME280;18176;49.502;11.754;2022-12-08T21:09:36;96049.06;;;7.41;57.33
21185;BME280;18176;49.502;11.754;2022-12-08T21:13:37;96070.84;;;7.48;57.59
21185;BME280;18176;49.502;11.754;2022-12-08T21:17:43;95925.66;;;6.40;57.31
21185;BME280;18176;49.502;11.754;2022-12-08T21:22:01;95990.34;;;6.82;57.68
21185;BME280;18176;49.502;11.754;2022-12-08T21:26:39;95857.84;;;6.07;57.08
21185;BME280;18176;49.502;11.754;2022-12-08T21:30:43;96065.31;;;7.49;57.46
21185;BME280;18176;49.502;11.754;2022-12-08T21:34:52;96073.69;;;7.58;57.55
21185;BME280;18176;49.502;11.754;2022-12-08T21:39:00;96076.19;;;7.64;57.04